Impacts METAR Board
IDs:

KAQO - Llano Muni, TX, US

Updated at: 0000 UTC 30 May 2020
Potential Impact None Slight Moderate High
Time 29/12Z 29/13Z 29/14Z 29/15Z 29/16Z 29/17Z 29/18Z 29/19Z 29/20Z 29/21Z 29/22Z 29/23Z 30/00Z
Temp64 70 73 75 79 81 82 84 86 86 86 86 84
Dewpt64 66 63 63 63 61 59 61 57 55 54 55 57
Altim30.17 30.18 30.20 30.20 30.20 30.20 30.19 30.19 30.19 30.18 30.16 30.14 30.13
VIS9 10 9 10 10 10 10 10 10 10 10 10 10
CIG-- -- -- -- -- -- -- -- -- -- -- -- --
CoverCLRCLRCLRCLRCLRCLRCLRFEWFEWCLRCLRCLRCLR
FltCatVFRVFRVFRVFRVFRVFRVFRVFRVFRVFRVFRVFRVFR
WX--------------------------
WDir03604030703030504070806060
WSpd0 6 10 7 7 6 10 9 9 11 7 8 8
WGst-- -- 15 -- -- -- 14 -- 14 16 15 14 --
Raw hourly METARs
KAQO 291150Z AUTO 00000KT 9SM CLR 18/18 A3017 RMK AO2 PWINO
KAQO 291250Z AUTO 36006KT 10SM CLR 21/19 A3018 RMK AO2 PWINO
KAQO 291350Z AUTO 04010G15KT 9SM CLR 23/17 A3020 RMK AO2 PWINO
KAQO 291450Z AUTO 03007KT 10SM CLR 24/17 A3020 RMK AO2 PWINO
KAQO 291550Z AUTO 07007KT 10SM CLR 26/17 A3020 RMK AO2 PWINO
KAQO 291650Z AUTO 03006KT 10SM CLR 27/16 A3020 RMK AO2 PWINO
KAQO 291750Z AUTO 03010G14KT 10SM CLR 28/15 A3019 RMK AO2 PWINO
KAQO 291850Z AUTO 05009KT 10SM FEW095 29/16 A3019 RMK AO2 PWINO
KAQO 291950Z AUTO 04009G14KT 10SM FEW095 30/14 A3019 RMK AO2 PWINO
KAQO 292050Z AUTO 07011G16KT 10SM CLR 30/13 A3018 RMK AO2 PWINO
KAQO 292150Z AUTO 08007G15KT 10SM CLR 30/12 A3016 RMK AO2 PWINO
KAQO 292250Z AUTO 06008G14KT 10SM CLR 30/13 A3014 RMK AO2 PWINO
KAQO 292350Z AUTO 06008KT 10SM CLR 29/14 A3013 RMK AO2 PWINO